sensor_id;sensor_type;location;lat;lon;timestamp;pressure;altitude;pressure_sealevel;temperature;humidity
79374;BME280;68844;53.128;17.958;2023-11-22T00:00:58;102073.49;;;-4.45;81.41
79374;BME280;68844;53.128;17.958;2023-11-22T00:03:34;102079.64;;;-4.46;81.33
79374;BME280;68844;53.128;17.958;2023-11-22T00:06:01;102077.15;;;-4.50;81.63
79374;BME280;68844;53.128;17.958;2023-11-22T00:08:30;102073.10;;;-4.53;81.56
79374;BME280;68844;53.128;17.958;2023-11-22T00:10:56;102065.98;;;-4.56;81.98
79374;BME280;68844;53.128;17.958;2023-11-22T00:13:23;102062.64;;;-4.59;81.99
79374;BME280;68844;53.128;17.958;2023-11-22T00:15:50;102063.35;;;-4.58;81.99
79374;BME280;68844;53.128;17.958;2023-11-22T00:18:19;102062.79;;;-4.60;81.91
79374;BME280;68844;53.128;17.958;2023-11-22T00:20:46;102063.36;;;-4.64;82.01
79374;BME280;68844;53.128;17.958;2023-11-22T00:23:13;102073.67;;;-4.71;81.88
79374;BME280;68844;53.128;17.958;2023-11-22T00:25:40;102077.70;;;-4.74;81.89
79374;BME280;68844;53.128;17.958;2023-11-22T00:28:10;102079.27;;;-4.80;82.36
79374;BME280;68844;53.128;17.958;2023-11-22T00:30:38;102082.42;;;-4.84;82.05
79374;BME280;68844;53.128;17.958;2023-11-22T00:33:04;102078.98;;;-4.84;81.81
79374;BME280;68844;53.128;17.958;2023-11-22T00:35:32;102085.83;;;-4.86;82.22
79374;BME280;68844;53.128;17.958;2023-11-22T00:37:59;102093.08;;;-4.90;82.53
79374;BME280;68844;53.128;17.958;2023-11-22T00:40:25;102090.16;;;-4.96;82.63
79374;BME280;68844;53.128;17.958;2023-11-22T00:42:52;102088.94;;;-5.03;82.36
79374;BME280;68844;53.128;17.958;2023-11-22T00:45:19;102096.66;;;-5.10;82.56
79374;BME280;68844;53.128;17.958;2023-11-22T00:47:46;102095.33;;;-5.14;82.78
79374;BME280;68844;53.128;17.958;2023-11-22T00:50:13;102100.73;;;-5.17;82.68
79374;BME280;68844;53.128;17.958;2023-11-22T00:52:40;102105.52;;;-5.18;82.53
79374;BME280;68844;53.128;17.958;2023-11-22T00:55:11;102104.73;;;-5.21;82.99
79374;BME280;68844;53.128;17.958;2023-11-22T00:57:37;102113.70;;;-5.26;83.29
79374;BME280;68844;53.128;17.958;2023-11-22T01:00:05;102119.07;;;-5.30;83.08
79374;BME280;68844;53.128;17.958;2023-11-22T01:02:34;102124.77;;;-5.35;83.10
79374;BME280;68844;53.128;17.958;2023-11-22T01:05:01;102122.32;;;-5.42;83.35
79374;BME280;68844;53.128;17.958;2023-11-22T01:07:27;102125.16;;;-5.44;83.46
79374;BME280;68844;53.128;17.958;2023-11-22T01:09:55;102134.78;;;-5.44;83.20
79374;BME280;68844;53.128;17.958;2023-11-22T01:12:22;102137.72;;;-5.43;83.50
79374;BME280;68844;53.128;17.958;2023-11-22T01:14:48;102143.08;;;-5.37;84.18
79374;BME280;68844;53.128;17.958;2023-11-22T01:17:15;102148.62;;;-5.29;84.06
79374;BME280;68844;53.128;17.958;2023-11-22T01:19:42;102143.60;;;-5.30;84.33
79374;BME280;68844;53.128;17.958;2023-11-22T01:22:08;102142.09;;;-5.36;83.86
79374;BME280;68844;53.128;17.958;2023-11-22T01:24:35;102140.62;;;-5.44;83.99
79374;BME280;68844;53.128;17.958;2023-11-22T01:27:04;102138.60;;;-5.48;84.31
79374;BME280;68844;53.128;17.958;2023-11-22T01:29:31;102136.10;;;-5.51;83.84
79374;BME280;68844;53.128;17.958;2023-11-22T01:31:58;102142.50;;;-5.55;83.86
79374;BME280;68844;53.128;17.958;2023-11-22T01:34:25;102149.89;;;-5.60;84.27
79374;BME280;68844;53.128;17.958;2023-11-22T01:36:51;102139.30;;;-5.65;84.45
79374;BME280;68844;53.128;17.958;2023-11-22T01:39:18;102129.58;;;-5.68;84.57
79374;BME280;68844;53.128;17.958;2023-11-22T01:41:45;102127.25;;;-5.72;84.70
79374;BME280;68844;53.128;17.958;2023-11-22T01:44:11;102134.11;;;-5.72;84.76
79374;BME280;68844;53.128;17.958;2023-11-22T01:46:38;102137.20;;;-5.72;84.29
79374;BME280;68844;53.128;17.958;2023-11-22T01:49:05;102143.44;;;-5.74;84.60
79374;BME280;68844;53.128;17.958;2023-11-22T01:51:31;102146.61;;;-5.77;85.19
79374;BME280;68844;53.128;17.958;2023-11-22T01:53:58;102150.95;;;-5.82;84.78
79374;BME280;68844;53.128;17.958;2023-11-22T01:56:27;102156.09;;;-5.87;84.65
79374;BME280;68844;53.128;17.958;2023-11-22T01:58:55;102163.41;;;-5.95;84.79
79374;BME280;68844;53.128;17.958;2023-11-22T02:01:23;102167.75;;;-5.98;84.90
79374;BME280;68844;53.128;17.958;2023-11-22T02:03:51;102167.65;;;-6.01;84.49
79374;BME280;68844;53.128;17.958;2023-11-22T02:06:20;102175.57;;;-6.05;84.59
79374;BME280;68844;53.128;17.958;2023-11-22T02:08:47;102180.05;;;-6.10;84.87
79374;BME280;68844;53.128;17.958;2023-11-22T02:11:17;102180.25;;;-6.14;85.16
79374;BME280;68844;53.128;17.958;2023-11-22T02:13:48;102179.55;;;-6.19;85.47
79374;BME280;68844;53.128;17.958;2023-11-22T02:16:19;102184.44;;;-6.21;85.29
79374;BME280;68844;53.128;17.958;2023-11-22T02:18:49;102184.61;;;-6.22;84.97
79374;BME280;68844;53.128;17.958;2023-11-22T02:21:19;102185.34;;;-6.25;85.07
79374;BME280;68844;53.128;17.958;2023-11-22T02:23:47;102188.84;;;-6.28;85.60
79374;BME280;68844;53.128;17.958;2023-11-22T02:26:14;102188.63;;;-6.29;85.93
79374;BME280;68844;53.128;17.958;2023-11-22T02:28:44;102191.94;;;-6.33;85.87
79374;BME280;68844;53.128;17.958;2023-11-22T02:31:10;102194.95;;;-6.35;85.93
79374;BME280;68844;53.128;17.958;2023-11-22T02:33:37;102192.92;;;-6.34;85.52
79374;BME280;68844;53.128;17.958;2023-11-22T02:36:04;102201.98;;;-6.35;85.49
79374;BME280;68844;53.128;17.958;2023-11-22T02:38:31;102209.10;;;-6.37;85.81
79374;BME280;68844;53.128;17.958;2023-11-22T02:40:57;102213.85;;;-6.38;85.82
79374;BME280;68844;53.128;17.958;2023-11-22T02:43:24;102210.19;;;-6.40;86.04
79374;BME280;68844;53.128;17.958;2023-11-22T02:45:51;102207.85;;;-6.43;85.85
79374;BME280;68844;53.128;17.958;2023-11-22T02:48:18;102211.52;;;-6.46;85.88
79374;BME280;68844;53.128;17.958;2023-11-22T02:50:45;102215.18;;;-6.44;85.73
79374;BME280;68844;53.128;17.958;2023-11-22T02:53:12;102220.71;;;-6.43;85.67
79374;BME280;68844;53.128;17.958;2023-11-22T02:55:39;102230.95;;;-6.44;85.79
79374;BME280;68844;53.128;17.958;2023-11-22T02:58:06;102233.80;;;-6.41;86.25
79374;BME280;68844;53.128;17.958;2023-11-22T03:00:33;102236.89;;;-6.36;86.63
79374;BME280;68844;53.128;17.958;2023-11-22T03:03:01;102245.00;;;-6.35;86.19
79374;BME280;68844;53.128;17.958;2023-11-22T03:05:29;102253.48;;;-6.32;86.15
79374;BME280;68844;53.128;17.958;2023-11-22T03:07:56;102242.20;;;-6.22;86.59
79374;BME280;68844;53.128;17.958;2023-11-22T03:10:23;102235.34;;;-6.12;86.57
79374;BME280;68844;53.128;17.958;2023-11-22T03:12:50;102246.83;;;-6.08;86.95
79374;BME280;68844;53.128;17.958;2023-11-22T03:15:16;102245.20;;;-6.00;87.41
79374;BME280;68844;53.128;17.958;2023-11-22T03:17:43;102241.88;;;-5.96;87.63
79374;BME280;68844;53.128;17.958;2023-11-22T03:20:10;102238.73;;;-5.93;87.08
79374;BME280;68844;53.128;17.958;2023-11-22T03:22:37;102231.25;;;-5.86;86.88
79374;BME280;68844;53.128;17.958;2023-11-22T03:25:05;102244.13;;;-5.80;87.02
79374;BME280;68844;53.128;17.958;2023-11-22T03:27:31;102236.94;;;-5.80;87.19
79374;BME280;68844;53.128;17.958;2023-11-22T03:29:59;102242.48;;;-5.79;87.39
79374;BME280;68844;53.128;17.958;2023-11-22T03:32:26;102246.45;;;-5.78;87.57
79374;BME280;68844;53.128;17.958;2023-11-22T03:34:53;102234.33;;;-5.76;87.24
79374;BME280;68844;53.128;17.958;2023-11-22T03:37:20;102222.98;;;-5.71;87.22
79374;BME280;68844;53.128;17.958;2023-11-22T03:39:47;102234.45;;;-5.67;87.29
79374;BME280;68844;53.128;17.958;2023-11-22T03:42:16;102238.23;;;-5.67;87.30
79374;BME280;68844;53.128;17.958;2023-11-22T03:44:45;102227.13;;;-5.70;87.34
79374;BME280;68844;53.128;17.958;2023-11-22T03:47:15;102236.05;;;-5.75;87.58
79374;BME280;68844;53.128;17.958;2023-11-22T03:49:41;102245.38;;;-5.79;87.22
79374;BME280;68844;53.128;17.958;2023-11-22T03:52:12;102242.70;;;-5.82;87.18
79374;BME280;68844;53.128;17.958;2023-11-22T03:54:39;102249.70;;;-5.83;87.11
79374;BME280;68844;53.128;17.958;2023-11-22T03:57:06;102254.70;;;-5.88;87.40
79374;BME280;68844;53.128;17.958;2023-11-22T03:59:34;102243.23;;;-5.92;87.53
79374;BME280;68844;53.128;17.958;2023-11-22T04:02:01;102245.90;;;-6.00;87.54
79374;BME280;68844;53.128;17.958;2023-11-22T04:04:28;102256.39;;;-6.09;87.50
79374;BME280;68844;53.128;17.958;2023-11-22T04:06:54;102262.10;;;-6.12;87.74
79374;BME280;68844;53.128;17.958;2023-11-22T04:09:21;102256.15;;;-6.15;87.24
79374;BME280;68844;53.128;17.958;2023-11-22T04:11:48;102265.98;;;-6.18;87.12
79374;BME280;68844;53.128;17.958;2023-11-22T04:14:15;102274.36;;;-6.24;87.22
79374;BME280;68844;53.128;17.958;2023-11-22T04:16:42;102284.90;;;-6.31;87.34
79374;BME280;68844;53.128;17.958;2023-11-22T04:19:08;102293.75;;;-6.38;87.44
79374;BME280;68844;53.128;17.958;2023-11-22T04:21:35;102293.43;;;-6.41;87.78
79374;BME280;68844;53.128;17.958;2023-11-22T04:24:02;102292.73;;;-6.42;87.51
79374;BME280;68844;53.128;17.958;2023-11-22T04:26:28;102303.30;;;-6.43;87.12
79374;BME280;68844;53.128;17.958;2023-11-22T04:28:55;102310.13;;;-6.49;87.28
79374;BME280;68844;53.128;17.958;2023-11-22T04:31:25;102308.08;;;-6.53;87.48
79374;BME280;68844;53.128;17.958;2023-11-22T04:33:51;102311.05;;;-6.56;87.49
79374;BME280;68844;53.128;17.958;2023-11-22T04:36:19;102306.32;;;-6.59;87.41
79374;BME280;68844;53.128;17.958;2023-11-22T04:38:45;102308.38;;;-6.59;87.49
79374;BME280;68844;53.128;17.958;2023-11-22T04:41:12;102303.92;;;-6.54;87.43
79374;BME280;68844;53.128;17.958;2023-11-22T04:43:39;102304.62;;;-6.50;87.68
79374;BME280;68844;53.128;17.958;2023-11-22T04:46:05;102319.27;;;-6.47;87.63
79374;BME280;68844;53.128;17.958;2023-11-22T04:48:32;102315.63;;;-6.44;88.14
79374;BME280;68844;53.128;17.958;2023-11-22T04:50:59;102321.77;;;-6.39;88.15
79374;BME280;68844;53.128;17.958;2023-11-22T04:53:26;102320.05;;;-6.35;88.00
79374;BME280;68844;53.128;17.958;2023-11-22T04:55:53;102328.73;;;-6.28;87.91
79374;BME280;68844;53.128;17.958;2023-11-22T04:58:20;102333.55;;;-6.22;87.72
79374;BME280;68844;53.128;17.958;2023-11-22T05:00:46;102335.52;;;-6.20;88.07
79374;BME280;68844;53.128;17.958;2023-11-22T05:03:13;102335.67;;;-6.16;88.15
79374;BME280;68844;53.128;17.958;2023-11-22T05:05:40;102338.95;;;-6.16;87.97
79374;BME280;68844;53.128;17.958;2023-11-22T05:08:06;102337.56;;;-6.16;88.16
79374;BME280;68844;53.128;17.958;2023-11-22T05:10:33;102348.13;;;-6.13;88.08
79374;BME280;68844;53.128;17.958;2023-11-22T05:13:00;102354.45;;;-6.09;88.05
79374;BME280;68844;53.128;17.958;2023-11-22T05:15:27;102355.06;;;-6.06;88.10
79374;BME280;68844;53.128;17.958;2023-11-22T05:17:54;102358.23;;;-6.04;88.21
79374;BME280;68844;53.128;17.958;2023-11-22T05:20:21;102360.75;;;-6.01;88.15
79374;BME280;68844;53.128;17.958;2023-11-22T05:22:47;102362.22;;;-5.98;88.25
79374;BME280;68844;53.128;17.958;2023-11-22T05:25:14;102363.16;;;-5.91;87.97
79374;BME280;68844;53.128;17.958;2023-11-22T05:27:41;102369.60;;;-5.83;88.06
79374;BME280;68844;53.128;17.958;2023-11-22T05:30:08;102367.54;;;-5.78;88.35
79374;BME280;68844;53.128;17.958;2023-11-22T05:32:37;102366.23;;;-5.76;88.50
79374;BME280;68844;53.128;17.958;2023-11-22T05:35:04;102369.73;;;-5.74;88.52
79374;BME280;68844;53.128;17.958;2023-11-22T05:37:36;102375.94;;;-5.74;88.30
79374;BME280;68844;53.128;17.958;2023-11-22T05:40:04;102375.53;;;-5.75;88.31
79374;BME280;68844;53.128;17.958;2023-11-22T05:42:31;102375.19;;;-5.75;87.94
79374;BME280;68844;53.128;17.958;2023-11-22T05:44:58;102376.70;;;-5.81;88.02
79374;BME280;68844;53.128;17.958;2023-11-22T05:47:25;102373.11;;;-5.85;88.39
79374;BME280;68844;53.128;17.958;2023-11-22T05:49:52;102374.01;;;-5.90;88.25
79374;BME280;68844;53.128;17.958;2023-11-22T05:52:18;102375.52;;;-5.95;88.25
79374;BME280;68844;53.128;17.958;2023-11-22T05:54:46;102372.91;;;-5.97;88.21
79374;BME280;68844;53.128;17.958;2023-11-22T05:57:14;102364.92;;;-5.94;88.16
79374;BME280;68844;53.128;17.958;2023-11-22T05:59:41;102369.20;;;-5.90;88.33
79374;BME280;68844;53.128;17.958;2023-11-22T06:02:08;102380.12;;;-5.86;88.37
79374;BME280;68844;53.128;17.958;2023-11-22T06:04:35;102382.33;;;-5.82;88.62
79374;BME280;68844;53.128;17.958;2023-11-22T06:07:01;102378.58;;;-5.77;88.77
79374;BME280;68844;53.128;17.958;2023-11-22T06:09:28;102364.87;;;-5.71;88.62
79374;BME280;68844;53.128;17.958;2023-11-22T06:11:55;102362.61;;;-5.62;88.32
79374;BME280;68844;53.128;17.958;2023-11-22T06:14:21;102368.21;;;-5.53;88.19
79374;BME280;68844;53.128;17.958;2023-11-22T06:16:48;102376.14;;;-5.48;88.43
79374;BME280;68844;53.128;17.958;2023-11-22T06:19:15;102393.73;;;-5.41;88.75
79374;BME280;68844;53.128;17.958;2023-11-22T06:21:42;102394.67;;;-5.33;88.91
79374;BME280;68844;53.128;17.958;2023-11-22T06:24:09;102398.60;;;-5.29;88.53
79374;BME280;68844;53.128;17.958;2023-11-22T06:26:38;102397.67;;;-5.21;88.61
79374;BME280;68844;53.128;17.958;2023-11-22T06:29:06;102397.48;;;-5.11;88.50
79374;BME280;68844;53.128;17.958;2023-11-22T06:31:33;102397.73;;;-5.03;88.44
79374;BME280;68844;53.128;17.958;2023-11-22T06:34:00;102395.66;;;-4.93;88.86
79374;BME280;68844;53.128;17.958;2023-11-22T06:36:27;102398.52;;;-4.84;88.84
79374;BME280;68844;53.128;17.958;2023-11-22T06:38:55;102397.20;;;-4.77;88.66
79374;BME280;68844;53.128;17.958;2023-11-22T06:41:22;102399.33;;;-4.70;88.52
79374;BME280;68844;53.128;17.958;2023-11-22T06:43:49;102397.40;;;-4.61;88.48
79374;BME280;68844;53.128;17.958;2023-11-22T06:46:15;102404.52;;;-4.53;88.35
79374;BME280;68844;53.128;17.958;2023-11-22T06:48:45;102406.95;;;-4.46;88.45
79374;BME280;68844;53.128;17.958;2023-11-22T06:51:11;102409.73;;;-4.40;88.47
79374;BME280;68844;53.128;17.958;2023-11-22T06:53:39;102424.15;;;-4.35;88.51
79374;BME280;68844;53.128;17.958;2023-11-22T06:56:06;102435.95;;;-4.32;88.47
79374;BME280;68844;53.128;17.958;2023-11-22T06:58:32;102434.71;;;-4.27;88.24
79374;BME280;68844;53.128;17.958;2023-11-22T07:01:00;102431.17;;;-4.19;88.14
79374;BME280;68844;53.128;17.958;2023-11-22T07:03:27;102439.60;;;-4.13;87.97
79374;BME280;68844;53.128;17.958;2023-11-22T07:05:54;102450.02;;;-4.11;88.28
79374;BME280;68844;53.128;17.958;2023-11-22T07:08:21;102448.70;;;-4.08;88.32
79374;BME280;68844;53.128;17.958;2023-11-22T07:10:48;102449.23;;;-4.08;87.78
79374;BME280;68844;53.128;17.958;2023-11-22T07:13:17;102456.93;;;-4.15;87.53
79374;BME280;68844;53.128;17.958;2023-11-22T07:15:44;102465.48;;;-4.16;87.62
79374;BME280;68844;53.128;17.958;2023-11-22T07:18:11;102468.86;;;-4.18;87.50
79374;BME280;68844;53.128;17.958;2023-11-22T07:20:40;102467.67;;;-4.23;87.51
79374;BME280;68844;53.128;17.958;2023-11-22T07:23:07;102477.14;;;-4.29;87.51
79374;BME280;68844;53.128;17.958;2023-11-22T07:25:40;102487.58;;;-4.30;87.68
79374;BME280;68844;53.128;17.958;2023-11-22T07:28:08;102491.65;;;-4.21;87.52
79374;BME280;68844;53.128;17.958;2023-11-22T07:30:35;102485.73;;;-3.48;87.03
79374;BME280;68844;53.128;17.958;2023-11-22T07:33:05;102478.56;;;-2.68;85.89
79374;BME280;68844;53.128;17.958;2023-11-22T07:35:33;102477.05;;;-2.60;85.54
79374;BME280;68844;53.128;17.958;2023-11-22T07:38:00;102477.97;;;-3.05;85.83
79374;BME280;68844;53.128;17.958;2023-11-22T07:40:30;102477.90;;;-3.27;86.30
79374;BME280;68844;53.128;17.958;2023-11-22T07:42:57;102483.10;;;-3.32;86.22
79374;BME280;68844;53.128;17.958;2023-11-22T07:45:24;102496.92;;;-3.37;85.84
79374;BME280;68844;53.128;17.958;2023-11-22T07:47:51;102504.12;;;-3.44;85.76
79374;BME280;68844;53.128;17.958;2023-11-22T07:50:19;102511.57;;;-3.48;85.67
79374;BME280;68844;53.128;17.958;2023-11-22T07:52:49;102522.48;;;-3.46;85.82
79374;BME280;68844;53.128;17.958;2023-11-22T07:55:17;102515.55;;;-3.48;86.34
79374;BME280;68844;53.128;17.958;2023-11-22T07:57:45;102507.55;;;-3.50;86.31
79374;BME280;68844;53.128;17.958;2023-11-22T08:00:15;102503.23;;;-3.45;86.63
79374;BME280;68844;53.128;17.958;2023-11-22T08:02:51;102496.26;;;-3.35;86.28
79374;BME280;68844;53.128;17.958;2023-11-22T08:05:25;102473.14;;;-3.24;86.17
79374;BME280;68844;53.128;17.958;2023-11-22T08:07:57;102463.55;;;-3.15;86.06
79374;BME280;68844;53.128;17.958;2023-11-22T08:10:49;102471.94;;;-3.17;86.02
79374;BME280;68844;53.128;17.958;2023-11-22T08:13:18;102467.85;;;-3.15;86.34
79374;BME280;68844;53.128;17.958;2023-11-22T08:15:46;102462.52;;;-3.09;86.36
79374;BME280;68844;53.128;17.958;2023-11-22T08:18:13;102464.37;;;-3.04;86.03
79374;BME280;68844;53.128;17.958;2023-11-22T08:20:43;102462.60;;;-2.79;85.94
79374;BME280;68844;53.128;17.958;2023-11-22T08:23:20;102453.71;;;-0.41;84.03
79374;BME280;68844;53.128;17.958;2023-11-22T08:29:07;102457.73;;;3.60;77.07
79374;BME280;68844;53.128;17.958;2023-11-22T08:31:47;102446.08;;;4.71;71.16
79374;BME280;68844;53.128;17.958;2023-11-22T08:34:37;102454.88;;;5.93;68.05
79374;BME280;68844;53.128;17.958;2023-11-22T08:37:11;102464.57;;;7.00;66.90
79374;BME280;68844;53.128;17.958;2023-11-22T08:39:38;102462.39;;;7.98;66.56
79374;BME280;68844;53.128;17.958;2023-11-22T08:42:05;102455.27;;;8.88;62.16
79374;BME280;68844;53.128;17.958;2023-11-22T08:44:42;102458.34;;;9.98;56.99
79374;BME280;68844;53.128;17.958;2023-11-22T08:47:28;102459.55;;;10.84;52.80
79374;BME280;68844;53.128;17.958;2023-11-22T08:50:08;102455.70;;;11.39;50.73
79374;BME280;68844;53.128;17.958;2023-11-22T08:52:54;102465.14;;;11.98;47.48
79374;BME280;68844;53.128;17.958;2023-11-22T08:55:25;102462.79;;;12.80;45.12
79374;BME280;68844;53.128;17.958;2023-11-22T08:57:55;102460.09;;;13.26;46.30
79374;BME280;68844;53.128;17.958;2023-11-22T09:00:28;102450.98;;;13.74;43.39
79374;BME280;68844;53.128;17.958;2023-11-22T09:02:58;102440.48;;;14.23;42.86
79374;BME280;68844;53.128;17.958;2023-11-22T09:05:25;102439.61;;;13.14;42.44
79374;BME280;68844;53.128;17.958;2023-11-22T09:07:53;102443.43;;;12.64;42.44
79374;BME280;68844;53.128;17.958;2023-11-22T09:10:22;102451.20;;;13.31;40.27
79374;BME280;68844;53.128;17.958;2023-11-22T09:12:48;102458.58;;;13.74;43.88
79374;BME280;68844;53.128;17.958;2023-11-22T09:15:15;102458.95;;;12.27;42.22
79374;BME280;68844;53.128;17.958;2023-11-22T09:17:44;102453.20;;;10.89;43.67
79374;BME280;68844;53.128;17.958;2023-11-22T09:20:13;102449.98;;;9.61;45.69
79374;BME280;68844;53.128;17.958;2023-11-22T09:22:47;102448.52;;;9.22;45.15
79374;BME280;68844;53.128;17.958;2023-11-22T09:25:21;102450.24;;;8.53;43.93
79374;BME280;68844;53.128;17.958;2023-11-22T09:27:53;102447.90;;;8.72;44.38
79374;BME280;68844;53.128;17.958;2023-11-22T09:30:27;102445.17;;;9.64;45.68
79374;BME280;68844;53.128;17.958;2023-11-22T09:33:03;102453.23;;;9.64;42.81
79374;BME280;68844;53.128;17.958;2023-11-22T09:35:30;102453.15;;;8.58;45.67
79374;BME280;68844;53.128;17.958;2023-11-22T09:38:01;102455.08;;;8.05;45.45
79374;BME280;68844;53.128;17.958;2023-11-22T09:40:29;102460.39;;;7.31;47.31
79374;BME280;68844;53.128;17.958;2023-11-22T09:42:59;102468.91;;;6.37;48.18
79374;BME280;68844;53.128;17.958;2023-11-22T09:45:27;102466.83;;;5.49;50.01
79374;BME280;68844;53.128;17.958;2023-11-22T09:47:54;102467.73;;;4.98;50.78
79374;BME280;68844;53.128;17.958;2023-11-22T09:51:03;102461.86;;;4.55;51.55
79374;BME280;68844;53.128;17.958;2023-11-22T09:53:40;102468.20;;;3.84;52.57
79374;BME280;68844;53.128;17.958;2023-11-22T09:56:24;102463.80;;;4.78;51.05
79374;BME280;68844;53.128;17.958;2023-11-22T09:58:55;102455.87;;;6.30;48.87
79374;BME280;68844;53.128;17.958;2023-11-22T10:01:24;102460.95;;;6.29;49.50
79374;BME280;68844;53.128;17.958;2023-11-22T10:03:51;102461.33;;;5.78;50.77
79374;BME280;68844;53.128;17.958;2023-11-22T10:06:21;102459.92;;;5.59;51.47
79374;BME280;68844;53.128;17.958;2023-11-22T10:08:48;102462.22;;;5.36;51.98
79374;BME280;68844;53.128;17.958;2023-11-22T10:11:18;102461.69;;;5.95;51.14
79374;BME280;68844;53.128;17.958;2023-11-22T10:13:48;102461.77;;;6.75;49.81
79374;BME280;68844;53.128;17.958;2023-11-22T10:16:17;102458.06;;;6.90;48.89
79374;BME280;68844;53.128;17.958;2023-11-22T10:18:46;102456.32;;;6.23;49.22
79374;BME280;68844;53.128;17.958;2023-11-22T10:21:20;102460.88;;;5.70;50.59
79374;BME280;68844;53.128;17.958;2023-11-22T10:23:54;102460.52;;;5.05;50.52
79374;BME280;68844;53.128;17.958;2023-11-22T10:26:23;102459.31;;;4.38;51.98
79374;BME280;68844;53.128;17.958;2023-11-22T10:28:51;102457.04;;;3.79;52.77
79374;BME280;68844;53.128;17.958;2023-11-22T10:31:19;102458.30;;;3.40;54.00
79374;BME280;68844;53.128;17.958;2023-11-22T10:33:48;102458.13;;;3.31;54.19
79374;BME280;68844;53.128;17.958;2023-11-22T10:36:17;102455.30;;;2.92;54.52
79374;BME280;68844;53.128;17.958;2023-11-22T10:38:47;102453.77;;;2.44;55.31
79374;BME280;68844;53.128;17.958;2023-11-22T10:41:14;102447.54;;;2.10;55.68
79374;BME280;68844;53.128;17.958;2023-11-22T10:43:41;102438.77;;;1.67;56.92
79374;BME280;68844;53.128;17.958;2023-11-22T10:46:12;102441.08;;;1.29;57.87
79374;BME280;68844;53.128;17.958;2023-11-22T10:48:39;102448.23;;;1.14;57.92
79374;BME280;68844;53.128;17.958;2023-11-22T10:51:10;102443.98;;;1.03;58.43
79374;BME280;68844;53.128;17.958;2023-11-22T10:53:44;102440.34;;;1.04;59.31
79374;BME280;68844;53.128;17.958;2023-11-22T10:56:16;102441.79;;;1.09;59.65
79374;BME280;68844;53.128;17.958;2023-11-22T11:01:14;102431.92;;;0.93;59.92
79374;BME280;68844;53.128;17.958;2023-11-22T11:03:54;102426.81;;;0.86;60.45
79374;BME280;68844;53.128;17.958;2023-11-22T11:06:26;102425.54;;;0.79;61.29
79374;BME280;68844;53.128;17.958;2023-11-22T11:08:58;102426.79;;;0.66;60.97
79374;BME280;68844;53.128;17.958;2023-11-22T11:11:30;102430.83;;;0.55;60.59
79374;BME280;68844;53.128;17.958;2023-11-22T11:13:58;102421.31;;;0.41;60.81
79374;BME280;68844;53.128;17.958;2023-11-22T11:16:25;102417.90;;;0.30;61.49
79374;BME280;68844;53.128;17.958;2023-11-22T11:18:53;102424.38;;;0.23;61.54
79374;BME280;68844;53.128;17.958;2023-11-22T11:21:21;102424.35;;;0.21;61.83
79374;BME280;68844;53.128;17.958;2023-11-22T11:23:51;102426.30;;;0.24;62.66
79374;BME280;68844;53.128;17.958;2023-11-22T11:26:19;102424.86;;;0.32;63.41
79374;BME280;68844;53.128;17.958;2023-11-22T11:28:51;102427.12;;;0.49;63.25
79374;BME280;68844;53.128;17.958;2023-11-22T11:31:21;102423.52;;;0.68;62.82
79374;BME280;68844;53.128;17.958;2023-11-22T11:36:24;102431.64;;;1.20;62.35
79374;BME280;68844;53.128;17.958;2023-11-22T11:38:52;102432.38;;;1.48;62.15
79374;BME280;68844;53.128;17.958;2023-11-22T11:41:25;102435.67;;;1.72;61.55
79374;BME280;68844;53.128;17.958;2023-11-22T11:43:55;102434.88;;;1.83;61.40
79374;BME280;68844;53.128;17.958;2023-11-22T11:46:23;102429.21;;;1.93;61.32
79374;BME280;68844;53.128;17.958;2023-11-22T11:48:52;102424.36;;;1.96;61.01
79374;BME280;68844;53.128;17.958;2023-11-22T11:51:22;102421.60;;;2.00;61.11
79374;BME280;68844;53.128;17.958;2023-11-22T11:53:49;102413.45;;;2.02;60.68
79374;BME280;68844;53.128;17.958;2023-11-22T11:56:17;102415.33;;;1.98;61.09
79374;BME280;68844;53.128;17.958;2023-11-22T11:58:48;102416.73;;;2.02;61.73
79374;BME280;68844;53.128;17.958;2023-11-22T12:01:17;102418.64;;;2.01;60.79
79374;BME280;68844;53.128;17.958;2023-11-22T12:03:43;102422.08;;;1.94;60.91
79374;BME280;68844;53.128;17.958;2023-11-22T12:06:14;102414.06;;;1.89;61.23
79374;BME280;68844;53.128;17.958;2023-11-22T12:08:41;102409.55;;;1.86;61.73
79374;BME280;68844;53.128;17.958;2023-11-22T12:11:07;102406.25;;;1.86;61.41
79374;BME280;68844;53.128;17.958;2023-11-22T12:13:35;102403.98;;;1.88;61.50
79374;BME280;68844;53.128;17.958;2023-11-22T12:16:05;102400.16;;;1.86;61.18
79374;BME280;68844;53.128;17.958;2023-11-22T12:18:41;102396.68;;;1.85;61.98
79374;BME280;68844;53.128;17.958;2023-11-22T12:21:10;102387.81;;;1.83;62.04
79374;BME280;68844;53.128;17.958;2023-11-22T12:23:40;102383.30;;;1.84;62.16
79374;BME280;68844;53.128;17.958;2023-11-22T12:26:15;102369.43;;;1.89;62.00
79374;BME280;68844;53.128;17.958;2023-11-22T12:28:46;102360.26;;;1.97;61.50
79374;BME280;68844;53.128;17.958;2023-11-22T12:31:14;102366.36;;;2.03;61.78
79374;BME280;68844;53.128;17.958;2023-11-22T12:33:42;102367.95;;;2.11;62.33
79374;BME280;68844;53.128;17.958;2023-11-22T12:36:10;102362.75;;;2.15;61.86
79374;BME280;68844;53.128;17.958;2023-11-22T12:38:37;102352.50;;;2.11;62.02
79374;BME280;68844;53.128;17.958;2023-11-22T12:41:05;102349.02;;;2.12;62.00
79374;BME280;68844;53.128;17.958;2023-11-22T12:43:33;102342.42;;;2.16;62.10
79374;BME280;68844;53.128;17.958;2023-11-22T12:46:07;102349.05;;;2.19;61.68
79374;BME280;68844;53.128;17.958;2023-11-22T12:48:34;102354.77;;;2.18;61.50
79374;BME280;68844;53.128;17.958;2023-11-22T12:51:02;102359.81;;;2.17;61.97
79374;BME280;68844;53.128;17.958;2023-11-22T12:53:29;102359.11;;;2.13;61.84
79374;BME280;68844;53.128;17.958;2023-11-22T12:55:57;102362.21;;;2.08;61.83
79374;BME280;68844;53.128;17.958;2023-11-22T12:58:24;102372.08;;;1.99;62.28